Aktualne dane pomiarowe

Uwaga, wersja testowa! Automatyczne pobieranie danych za pomocą narzędzi lub skryptów to umożliwiających jest zabronione.

Dane meteo z obszaru Polski uzyskane na podstawie depesz SYNOP pobieranych co godzinę z NWS. Najedź myszką na symbol przedstawiony w tabeli, aby uzyskać informacje co do jego znaczenia. Prosimy pamiętać, że to testowa wersja strony, która jeszcze nie jest ukończona. Stworzono również jest krótki FAQ dotyczący korzystania z tej podstrony Anomalie temperatury w chwili obecnej odniesione są do okresu referencyjnego 1951-2016. Okres ten będzie później zmieniony na 1981-2010. Kliknij ikonę aby pobrać plik CSV. Kliknij ikonę aby wygenerować mapę synoptyczną dla danego terminu.

Wybierz Datę:    

        

Śnieżka (12510)

Dane terminowe dla wybranej stacji. Kliknij datę, aby otrzymać dane z tego terminu dla wszystkich stacji.

TemperaturaZachmurzenieWiatrCiśnienieOpadyPogoda
 Data t td wb tx tn tg rh  Nt Nl Cl Cm Ch ws wd g1 g2 wx mslp ppp ch 24h 12h t ww ww w1 w2  
2019-06-28 23:00:00 8.1 4.7 6.0--- 7950.0wx-7wx---- 844.9 -0.4---------
2019-06-28 22:00:00 8.0 4.6 5.9--- 7950.0wx-8wx---- 845.0 0.2---------
2019-06-28 21:00:00 8.1 4.5 5.9--- 7850.0wx-9wx---- 845.3 0.5---------
2019-06-28 20:00:00 8.4 4.4 6.0--- 7650.0wx-wx7wx---- 845.3 0.6---------
2019-06-28 19:00:00 8.6 4.6 6.2--- 7650.0wxwxwx7wx---- 844.8 0.1---------
2019-06-28 18:00:00 9.1 5.1 6.7 9.6 4.4- 7650.0wxwxwx8wx---- 844.8 0.2- 0.012------
2019-06-28 17:00:00 9.2 5.0 6.7--- 7550.0wxwxwxwx8wx---- 844.7 0.0---------
2019-06-28 16:00:00 9.2 4.6 6.5--- 7350.0wxwxwxwx9wx---- 844.7 0.0---------
2019-06-28 15:00:00 8.8 5.0 6.5--- 7750.0wxwxwxwx9wx---- 844.6 -0.2---------
2019-06-28 14:00:00 8.5 5.2 6.5--- 8050.0wxwxwxwx8wx---- 844.7 0.2---------
2019-06-28 13:00:00 8.1 4.3 5.8--- 7750.0wxwxwxwx8wx---- 844.7 0.6---------
2019-06-28 12:00:00 7.5 4.3 5.5--- 8050.0wxwxwxwx6wx---- 844.8 0.9- 0.06wx---
2019-06-28 11:00:00 6.5 6.5 6.4--- 1000.9wxwxwxwx6wx---- 844.5 1.0---wx-w1w2--
2019-06-28 10:00:00 5.7 5.7 5.6--- 1000.9wxwxwx10wx---- 844.1 1.0---wx-w1w2--
2019-06-28 09:00:00 5.2 5.2 5.1--- 1000.3wxwxwx11wx---- 843.9 1.0---wx-w1w2--
2019-06-28 08:00:00 4.9 4.9 4.8--- 1000.1wxwxwx12wx---- 843.5 1.3---wx-w1w2--
2019-06-28 07:00:00 4.7 4.7 4.6--- 1000.1wxwxwx12wx---- 843.1 0.6---wx-w1w2--
2019-06-28 06:00:00 4.9 4.9 4.8 11.1 4.7- 1000.1wx-13wx---- 842.9 0.5- 0.012wx-- 14.9
2019-06-28 05:00:00 5.4 5.4 5.3--- 1000.1wx-14wx---- 842.2 -0.1---wx-w1w2--
2019-06-28 04:00:00 5.7 5.7 5.6--- 1000.1wx-13wx---- 842.5 0.2---wx-w1w2--
2019-06-28 03:00:00 5.8 5.8 5.7--- 1000.1wx-11wx---- 842.4 -0.6---wx---
2019-06-28 02:00:00 5.5 5.5 5.4--- 1000.1wx-12wx---- 842.3 -0.9---wx-w1w2--
2019-06-28 01:00:00 5.7 5.7 5.6--- 1000.1wx-14wx---- 842.3 -0.5---wx---
2019-06-28 00:00:00 6.5 4.7 5.3--- 8850.0wx-12wx---- 843.0 0.0- 0.06------
2019-06-27 23:00:00 7.4 3.8 5.2--- 7850.0wx-12wx---- 843.2 0.2---------
2019-06-27 22:00:00 8.6 3.6 5.7--- 7150.0wx-17wx---- 842.8 0.1---------
2019-06-27 21:00:00 8.9 3.3 5.7--- 6850.0wx-18wx---- 843.0 0.0---------
2019-06-27 20:00:00 9.3 2.8 5.7--- 6450.0wx-wx18wx---- 843.0 -0.1---------
2019-06-27 19:00:00 10.2 2.1 5.9--- 5750.0wx-wx17wx---- 842.7 -0.7---------
2019-06-27 18:00:00 11.1 1.9 6.3 12.9 10.4- 5350.0wx-wx16wx---- 843.0 -0.5- 0.012------
2019-06-27 17:00:00 11.7 1.6 6.6--- 5050.0wxwxwx15wx---- 843.1 -0.9---------
2019-06-27 16:00:00 11.8 1.4 6.5--- 4950.0wxwxwx15wx---- 843.4 -1.1---------
2019-06-27 15:00:00 12.1 -0.1 6.2--- 4350.0wxwxwx14wx---- 843.5 -0.9---------
2019-06-27 14:00:00 12.1 1.1 6.6--- 4750.0wxwxwx14wx---- 844.0 -0.7---------
2019-06-27 13:00:00 11.8 -0.1 6.0--- 4450.0wxwxwx12wx---- 844.5 -0.5---------
2019-06-27 12:00:00 12.1 1.4 6.7--- 4850.0wxwxwx12wx---- 844.4 -0.4- 0.06------
2019-06-27 11:00:00 12.5 -0.4 6.3--- 4150.0wxwxwx12wx---- 844.7 0.0---------
2019-06-27 10:00:00 12.4 -3.4 5.4--- 3350.0wxwxwx11wx---- 845.0 0.8---------
2019-06-27 09:00:00 11.4 3.7 7.2--- 5950.0wxwxwx12wx---- 844.8 1.0---------
2019-06-27 08:00:00 10.8 7.3 8.6--- 7950.0wxwxwx12wx---- 844.7 1.2---------
2019-06-27 07:00:00 11.6 6.5 8.5--- 7150.0wxwxwxwx14wx---- 844.2 0.2---------
2019-06-27 06:00:00 11.8 8.3 9.6 21.1 10.7- 7920.0wx-wx16wx---- 843.8 -0.5- 0.012----- 15.0
2019-06-27 05:00:00 11.7 11.1 11.2--- 9615.0wx-wx17wx---- 843.5 -1.5---------
2019-06-27 04:00:00 12.7 10.1 11.0--- 8420.0wx-wx19wx---- 844.0 -1.8---------
2019-06-27 03:00:00 12.8 11.7 12.0--- 9340.0wx-wx17wx---- 844.3 -2.1---------
2019-06-27 02:00:00 14.0 12.7 13.1--- 9240.0wx-wx15wx---- 845.0 -1.7---------
2019-06-27 01:00:00 15.0 12.9 13.5--- 8740.0wx-13wx---- 845.8 -1.0---------
2019-06-27 00:00:00 16.0 13.8 14.5--- 8740.0wx-11wx---- 846.4 -0.5- 0.06------
1.1 ms

 

Print Friendly, PDF & Email